createdAt,value
2023-02-27T00:00:14.349Z,98483.69
2023-02-27T00:02:18.998Z,98488.88
2023-02-27T00:04:22.195Z,98493.16
2023-02-27T00:06:25.692Z,98491.53
2023-02-27T00:08:28.887Z,98488.13
2023-02-27T00:10:32.193Z,98485.56
2023-02-27T00:12:37.895Z,98487.25
2023-02-27T00:14:41.619Z,98483.94
2023-02-27T00:16:44.954Z,98473.69
2023-02-27T00:18:49.576Z,98475.41
2023-02-27T00:20:52.741Z,98483.03
2023-02-27T00:22:56.017Z,98477.03
2023-02-27T00:25:01.189Z,98475.31
2023-02-27T00:27:05.116Z,98471.84
2023-02-27T00:29:08.638Z,98479.41
2023-02-27T00:31:11.887Z,98480.97
2023-02-27T00:33:23.729Z,98487.88
2023-02-27T00:35:28.695Z,98484.50
2023-02-27T00:37:31.905Z,98483.69
2023-02-27T00:39:35.395Z,98484.59
2023-02-27T00:41:38.550Z,98481.94
2023-02-27T00:43:41.749Z,98481.16
2023-02-27T00:45:45.102Z,98489.69
2023-02-27T00:47:49.612Z,98489.66
2023-02-27T00:49:52.788Z,98487.09
2023-02-27T00:51:57.330Z,98485.47
2023-02-27T00:54:00.507Z,98488.88
2023-02-27T00:56:07.890Z,98490.56
2023-02-27T00:58:11.118Z,98482.94
2023-02-27T01:00:18.287Z,98494.03
2023-02-27T01:02:21.546Z,98489.72
2023-02-27T01:04:24.680Z,98486.34
2023-02-27T01:06:29.945Z,98482.88
2023-02-27T01:08:34.556Z,98487.97
2023-02-27T01:10:41.642Z,98499.16
2023-02-27T01:12:44.880Z,98478.66
2023-02-27T01:14:48.037Z,98482.91
2023-02-27T01:16:53.858Z,98491.59
2023-02-27T01:18:57.050Z,98484.81
2023-02-27T01:21:05.093Z,98482.38
2023-02-27T01:23:08.209Z,98489.09
2023-02-27T01:25:12.877Z,98483.03
2023-02-27T01:27:16.020Z,98497.63
2023-02-27T01:29:19.147Z,98485.72
2023-02-27T01:31:22.509Z,98487.38
2023-02-27T01:33:25.739Z,98489.16
2023-02-27T01:35:31.362Z,98485.91
2023-02-27T01:37:34.596Z,98476.53
2023-02-27T01:39:37.959Z,98483.31
2023-02-27T01:41:45.090Z,98478.09
2023-02-27T01:43:56.929Z,98479.78
2023-02-27T01:46:00.974Z,98475.56
2023-02-27T01:48:12.995Z,98478.13
2023-02-27T01:50:17.427Z,98476.53
2023-02-27T01:52:20.564Z,98478.13
2023-02-27T01:54:29.865Z,98476.47
2023-02-27T01:56:33.866Z,98471.38
2023-02-27T01:58:39.006Z,98476.34
2023-02-27T02:00:42.518Z,98469.47
2023-02-27T02:02:56.243Z,98464.34
2023-02-27T02:04:59.730Z,98467.81
2023-02-27T02:07:06.060Z,98479.66
2023-02-27T02:09:11.190Z,98479.72
2023-02-27T02:11:15.213Z,98472.13
2023-02-27T02:13:18.858Z,98475.41
2023-02-27T02:15:29.096Z,98472.09
2023-02-27T02:17:40.218Z,98464.47
2023-02-27T02:20:10.566Z,98468.75
2023-02-27T02:22:54.937Z,98462.75
2023-02-27T02:25:38.656Z,98470.34
2023-02-27T02:27:49.725Z,98471.22
2023-02-27T02:30:22.692Z,98462.81
2023-02-27T02:32:44.183Z,98470.41
2023-02-27T02:35:19.073Z,98475.50
2023-02-27T02:37:54.996Z,98472.34
2023-02-27T02:40:21.879Z,98457.78
2023-02-27T02:42:27.213Z,98470.44
2023-02-27T02:44:37.605Z,98470.41
2023-02-27T02:46:46.523Z,98479.03
2023-02-27T02:48:55.200Z,98483.25
2023-02-27T02:51:05.966Z,98475.56
2023-02-27T02:53:12.902Z,98480.00
2023-02-27T02:55:23.349Z,98479.22
2023-02-27T02:57:33.101Z,98485.00
2023-02-27T02:59:40.320Z,98488.41
2023-02-27T03:01:46.231Z,98486.66
2023-02-27T03:03:54.062Z,98487.47
2023-02-27T03:06:03.942Z,98495.94
2023-02-27T03:08:10.677Z,98488.19
2023-02-27T03:10:17.175Z,98484.72
2023-02-27T03:12:24.430Z,98486.47
2023-02-27T03:14:31.829Z,98495.00
2023-02-27T03:16:41.190Z,98494.25
2023-02-27T03:18:48.218Z,98494.22
2023-02-27T03:20:54.392Z,98507.00
2023-02-27T03:23:02.662Z,98505.28
2023-02-27T03:25:08.469Z,98507.78
2023-02-27T03:27:14.615Z,98502.63
2023-02-27T03:29:21.854Z,98509.47
2023-02-27T03:31:32.588Z,98505.31
2023-02-27T03:33:39.343Z,98505.25
2023-02-27T03:35:48.958Z,98501.84
2023-02-27T03:37:59.551Z,98512.06
2023-02-27T03:40:09.235Z,98499.38
2023-02-27T03:42:17.789Z,98513.00
2023-02-27T03:44:55.773Z,98516.38
2023-02-27T03:46:59.261Z,98511.41
2023-02-27T03:49:02.529Z,98512.19
2023-02-27T03:51:06.249Z,98513.97
2023-02-27T03:53:14.840Z,98520.03
2023-02-27T03:55:20.279Z,98521.63
2023-02-27T03:57:26.573Z,98524.34
2023-02-27T03:59:30.995Z,98520.13
2023-02-27T04:01:35.836Z,98521.84
2023-02-27T04:03:45.129Z,98522.75
2023-02-27T04:05:52.303Z,98519.38
2023-02-27T04:08:08.555Z,98520.34
2023-02-27T04:10:40.968Z,98530.59
2023-02-27T04:13:04.703Z,98525.44
2023-02-27T04:15:15.807Z,98521.28
2023-02-27T04:17:23.672Z,98532.22
2023-02-27T04:19:37.973Z,98526.22
2023-02-27T04:21:46.025Z,98531.16
2023-02-27T04:23:56.727Z,98525.31
2023-02-27T04:26:10.941Z,98527.91
2023-02-27T04:28:18.632Z,98524.44
2023-02-27T04:30:27.471Z,98520.97
2023-02-27T04:32:36.959Z,98514.22
2023-02-27T04:34:43.462Z,98521.81
2023-02-27T04:36:50.128Z,98522.53
2023-02-27T04:38:58.387Z,98525.97
2023-02-27T04:41:06.728Z,98525.19
2023-02-27T04:43:13.714Z,98525.25
2023-02-27T04:45:20.413Z,98523.50
2023-02-27T04:47:26.495Z,98521.84
2023-02-27T04:49:34.597Z,98517.66
2023-02-27T04:51:41.584Z,98520.28
2023-02-27T04:53:49.189Z,98517.00
2023-02-27T04:55:55.778Z,98520.59
2023-02-27T04:58:01.812Z,98521.25
2023-02-27T05:00:09.370Z,98525.41
2023-02-27T05:02:14.870Z,98525.53
2023-02-27T05:04:20.910Z,98526.38
2023-02-27T05:06:29.232Z,98527.31
2023-02-27T05:08:36.810Z,98535.88
2023-02-27T05:10:44.280Z,98529.28
2023-02-27T05:12:51.938Z,98528.34
2023-02-27T05:14:57.835Z,98528.28
2023-02-27T05:17:06.211Z,98528.38
2023-02-27T05:19:09.976Z,98534.38
2023-02-27T05:21:26.445Z,98528.47
2023-02-27T05:23:36.355Z,98533.56
2023-02-27T05:25:46.093Z,98531.66
2023-02-27T05:27:54.405Z,98538.56
2023-02-27T05:30:00.782Z,98539.34
2023-02-27T05:32:08.146Z,98547.09
2023-02-27T05:34:15.455Z,98540.38
2023-02-27T05:36:22.031Z,98543.00
2023-02-27T05:38:28.860Z,98554.03
2023-02-27T05:40:34.978Z,98550.59
2023-02-27T05:42:41.774Z,98561.59
2023-02-27T05:44:49.101Z,98557.28
2023-02-27T05:46:54.959Z,98560.81
2023-02-27T05:48:59.581Z,98542.09
2023-02-27T05:51:04.967Z,98558.31
2023-02-27T05:53:11.000Z,98564.34
2023-02-27T05:55:19.696Z,98558.38
2023-02-27T05:57:26.105Z,98559.13
2023-02-27T05:59:32.834Z,98560.16
2023-02-27T06:01:36.360Z,98555.91
2023-02-27T06:03:40.953Z,98562.66
2023-02-27T06:05:45.110Z,98570.31
2023-02-27T06:07:49.189Z,98554.22
2023-02-27T06:09:52.742Z,98562.66
2023-02-27T06:11:57.315Z,98568.59
2023-02-27T06:14:00.486Z,98561.78
2023-02-27T06:16:03.890Z,98567.72
2023-02-27T06:18:07.448Z,98582.09
2023-02-27T06:20:12.589Z,98581.22
2023-02-27T06:22:16.143Z,98577.03
2023-02-27T06:24:21.899Z,98580.50
2023-02-27T06:26:26.249Z,98579.59
2023-02-27T06:28:31.413Z,98588.03
2023-02-27T06:30:38.321Z,98581.94
2023-02-27T06:32:41.782Z,98589.47
2023-02-27T06:34:50.773Z,98592.69
2023-02-27T06:36:54.300Z,98599.19
2023-02-27T06:38:58.874Z,98599.69
2023-02-27T06:41:03.806Z,98600.44
2023-02-27T06:43:07.473Z,98601.22
2023-02-27T06:45:14.561Z,98605.41
2023-02-27T06:47:20.573Z,98609.38
2023-02-27T06:49:26.471Z,98611.31
2023-02-27T06:51:30.929Z,98610.03
2023-02-27T06:53:36.977Z,98612.19
2023-02-27T06:55:42.267Z,98608.50
2023-02-27T06:57:46.482Z,98624.34
2023-02-27T06:59:50.476Z,98628.19
2023-02-27T07:01:55.304Z,98629.78
2023-02-27T07:04:03.638Z,98636.56
2023-02-27T07:06:07.716Z,98632.22
2023-02-27T07:08:12.481Z,98642.13
2023-02-27T07:10:15.899Z,98639.25
2023-02-27T07:12:19.291Z,98645.09
2023-02-27T07:14:22.883Z,98643.31
2023-02-27T07:16:26.388Z,98648.44
2023-02-27T07:18:31.386Z,98653.56
2023-02-27T07:20:34.738Z,98640.59
2023-02-27T07:22:38.122Z,98656.47
2023-02-27T07:24:42.072Z,98661.09
2023-02-27T07:26:45.657Z,98660.25
2023-02-27T07:28:48.954Z,98653.31
2023-02-27T07:30:55.486Z,98658.97
2023-02-27T07:32:58.624Z,98657.59
2023-02-27T07:35:04.228Z,98653.56
2023-02-27T07:37:08.090Z,98663.84
2023-02-27T07:39:13.165Z,98673.75
2023-02-27T07:41:29.512Z,98660.47
2023-02-27T07:43:35.811Z,98669.47
2023-02-27T07:45:39.223Z,98670.91
2023-02-27T07:47:42.365Z,98666.94
2023-02-27T07:49:45.608Z,98655.00
2023-02-27T07:51:50.003Z,98663.56
2023-02-27T07:53:53.174Z,98665.28
2023-02-27T07:55:56.221Z,98670.25
2023-02-27T07:57:59.336Z,98666.53
2023-02-27T08:00:02.514Z,98672.19
2023-02-27T08:02:15.578Z,98674.16
2023-02-27T08:04:18.698Z,98656.50
2023-02-27T08:06:21.866Z,98648.03
2023-02-27T08:08:26.472Z,98653.59
2023-02-27T08:10:29.983Z,98663.13
2023-02-27T08:12:33.131Z,98657.81
2023-02-27T08:14:36.236Z,98663.53
2023-02-27T08:16:39.363Z,98660.34
2023-02-27T08:18:42.568Z,98653.91
2023-02-27T08:20:45.591Z,98662.09
2023-02-27T08:22:48.720Z,98659.66
2023-02-27T08:24:53.209Z,98676.41
2023-02-27T08:26:57.308Z,98666.25
2023-02-27T08:29:00.520Z,98658.78
2023-02-27T08:31:03.756Z,98654.16
2023-02-27T08:33:07.025Z,98665.47
2023-02-27T08:35:10.796Z,98670.47
2023-02-27T08:37:14.105Z,98693.00
2023-02-27T08:39:17.851Z,98664.09
2023-02-27T08:41:22.810Z,98672.50
2023-02-27T08:43:26.066Z,98681.13
2023-02-27T08:45:29.394Z,98669.13
2023-02-27T08:47:32.630Z,98675.44
2023-02-27T08:49:35.905Z,98675.13
2023-02-27T08:51:39.111Z,98680.94
2023-02-27T08:53:42.424Z,98677.09
2023-02-27T08:55:45.743Z,98683.72
2023-02-27T08:57:50.278Z,98678.88
2023-02-27T08:59:53.636Z,98679.56
2023-02-27T09:01:56.872Z,98683.66
2023-02-27T09:03:59.920Z,98687.44
2023-02-27T09:06:03.252Z,98683.13
2023-02-27T09:08:07.159Z,98691.03
2023-02-27T09:10:12.335Z,98688.69
2023-02-27T09:12:15.845Z,98684.94
2023-02-27T09:14:20.470Z,98692.34
2023-02-27T09:16:24.258Z,98686.25
2023-02-27T09:18:27.458Z,98683.25
2023-02-27T09:20:31.824Z,98684.69
2023-02-27T09:22:34.954Z,98693.59
2023-02-27T09:24:38.053Z,98695.69
2023-02-27T09:26:46.068Z,98689.72
2023-02-27T09:28:50.290Z,98685.78
2023-02-27T09:30:54.851Z,98694.97
2023-02-27T09:32:58.006Z,98687.03
2023-02-27T09:35:01.026Z,98687.59
2023-02-27T09:37:04.256Z,98688.84
2023-02-27T09:39:09.721Z,98703.38
2023-02-27T09:41:32.246Z,98696.03
2023-02-27T09:43:38.373Z,98695.41
2023-02-27T09:45:41.666Z,98695.41
2023-02-27T09:47:50.748Z,98684.03
2023-02-27T09:50:00.125Z,98694.53
2023-02-27T09:52:03.527Z,98690.13
2023-02-27T09:54:06.622Z,98695.63
2023-02-27T09:56:15.071Z,98695.28
2023-02-27T09:58:32.187Z,98700.28
2023-02-27T10:00:45.991Z,98715.09
2023-02-27T10:02:56.492Z,98705.81
2023-02-27T10:05:04.571Z,98717.53
2023-02-27T10:07:14.087Z,98708.38
2023-02-27T10:09:26.197Z,98711.69
2023-02-27T10:11:35.352Z,98706.97
2023-02-27T10:13:47.906Z,98715.66
2023-02-27T10:15:53.600Z,98703.47
2023-02-27T10:18:09.517Z,98721.31
2023-02-27T10:20:25.536Z,98711.97
2023-02-27T10:22:31.673Z,98707.00
2023-02-27T10:24:38.440Z,98712.13
2023-02-27T10:26:43.957Z,98709.88
2023-02-27T10:28:47.072Z,98707.59
2023-02-27T10:30:51.880Z,98711.34
2023-02-27T10:32:58.637Z,98726.34
2023-02-27T10:35:08.903Z,98711.84
2023-02-27T10:37:16.111Z,98702.44
2023-02-27T10:39:20.981Z,98718.16
2023-02-27T10:41:24.801Z,98723.16
2023-02-27T10:43:27.894Z,98712.44
2023-02-27T10:45:31.100Z,98730.81
2023-02-27T10:47:34.233Z,98717.56
2023-02-27T10:49:39.216Z,98710.41
2023-02-27T10:51:44.400Z,98717.28
2023-02-27T10:53:47.705Z,98715.03
2023-02-27T10:56:00.312Z,98710.97
2023-02-27T10:58:04.643Z,98723.78
2023-02-27T11:00:12.401Z,98703.50
2023-02-27T11:02:23.826Z,98703.00
2023-02-27T11:04:30.022Z,98706.50
2023-02-27T11:06:34.617Z,98706.34
2023-02-27T11:08:37.997Z,98709.25
2023-02-27T11:10:55.008Z,98713.16
2023-02-27T11:13:00.839Z,98717.31
2023-02-27T11:15:22.899Z,98705.91
2023-02-27T11:17:28.997Z,98708.06
2023-02-27T11:19:35.146Z,98704.19
2023-02-27T11:21:39.661Z,98699.81
2023-02-27T11:23:52.074Z,98702.50
2023-02-27T11:26:11.868Z,98698.03
2023-02-27T11:28:22.333Z,98708.66
2023-02-27T11:30:28.151Z,98686.94
2023-02-27T11:32:37.661Z,98690.63
2023-02-27T11:34:42.463Z,98685.00
2023-02-27T11:36:48.567Z,98688.53
2023-02-27T11:38:53.992Z,98696.44
2023-02-27T11:40:58.444Z,98689.59
2023-02-27T11:43:05.189Z,98681.81
2023-02-27T11:46:04.713Z,98687.97
2023-02-27T11:47:52.613Z,98703.59
2023-02-27T11:50:22.191Z,98685.13
2023-02-27T11:52:31.125Z,98688.53
2023-02-27T11:54:39.426Z,98682.00
2023-02-27T11:56:45.431Z,98700.25
2023-02-27T11:58:56.644Z,98678.47
2023-02-27T12:01:02.264Z,98689.13
2023-02-27T12:03:11.839Z,98695.63
2023-02-27T12:05:17.921Z,98690.69
2023-02-27T12:07:24.631Z,98691.13
2023-02-27T12:09:36.494Z,98685.78
2023-02-27T12:11:43.240Z,98685.59
2023-02-27T12:13:49.175Z,98676.94
2023-02-27T12:15:57.124Z,98689.38
2023-02-27T12:18:11.175Z,98696.44
2023-02-27T12:20:24.106Z,98677.53
2023-02-27T12:22:30.673Z,98681.88
2023-02-27T12:24:40.444Z,98670.56
2023-02-27T12:26:45.710Z,98677.44
2023-02-27T12:28:56.174Z,98668.34
2023-02-27T12:31:09.100Z,98662.50
2023-02-27T12:33:19.853Z,98666.66
2023-02-27T12:35:25.597Z,98652.31
2023-02-27T12:37:30.192Z,98657.59
2023-02-27T12:39:36.210Z,98659.25
2023-02-27T12:41:47.707Z,98678.16
2023-02-27T12:43:56.895Z,98660.59
2023-02-27T12:46:22.540Z,98663.34
2023-02-27T12:48:36.993Z,98656.53
2023-02-27T12:50:51.094Z,98645.78
2023-02-27T12:53:06.261Z,98660.94
2023-02-27T12:55:15.194Z,98652.00
2023-02-27T12:57:33.547Z,98659.69
2023-02-27T12:59:49.448Z,98665.88
2023-02-27T13:01:59.263Z,98673.69
2023-02-27T13:04:06.302Z,98669.44
2023-02-27T13:06:15.457Z,98661.16
2023-02-27T13:08:43.351Z,98664.41
2023-02-27T13:10:51.471Z,98666.88
2023-02-27T13:12:58.260Z,98678.09
2023-02-27T13:15:05.285Z,98663.03
2023-02-27T13:17:15.188Z,98657.63
2023-02-27T13:19:24.050Z,98666.66
2023-02-27T13:21:31.595Z,98647.25
2023-02-27T13:23:43.325Z,98656.19
2023-02-27T13:25:51.025Z,98659.75
2023-02-27T13:27:56.543Z,98652.91
2023-02-27T13:30:10.603Z,98646.88
2023-02-27T13:32:32.706Z,98649.34
2023-02-27T13:34:45.841Z,98655.13
2023-02-27T13:36:52.339Z,98647.03
2023-02-27T13:38:56.205Z,98645.31
2023-02-27T13:41:38.284Z,98649.91
2023-02-27T13:43:51.780Z,98652.91
2023-02-27T13:45:58.082Z,98657.25
2023-02-27T13:48:01.439Z,98651.72
2023-02-27T13:50:06.530Z,98653.97
2023-02-27T13:52:10.220Z,98642.03
2023-02-27T13:54:33.635Z,98662.47
2023-02-27T13:56:38.139Z,98657.91
2023-02-27T13:58:41.281Z,98638.63
2023-02-27T14:00:44.691Z,98650.44
2023-02-27T14:02:59.868Z,98652.06
2023-02-27T14:05:07.098Z,98657.59
2023-02-27T14:07:14.043Z,98649.16
2023-02-27T14:09:22.097Z,98655.09
2023-02-27T14:11:26.719Z,98662.31
2023-02-27T14:14:00.489Z,98656.94
2023-02-27T14:16:04.704Z,98660.44
2023-02-27T14:18:49.837Z,98660.31
2023-02-27T14:20:53.146Z,98659.63
2023-02-27T14:23:13.780Z,98662.44
2023-02-27T14:25:27.219Z,98664.00
2023-02-27T14:27:33.491Z,98670.81
2023-02-27T14:29:38.260Z,98669.53
2023-02-27T14:31:41.922Z,98669.59
2023-02-27T14:33:49.765Z,98661.56
2023-02-27T14:36:03.982Z,98661.78
2023-02-27T14:38:10.702Z,98663.78
2023-02-27T14:40:28.071Z,98664.81
2023-02-27T14:42:45.899Z,98665.09
2023-02-27T14:44:51.616Z,98665.13
2023-02-27T14:46:56.535Z,98669.09
2023-02-27T14:49:01.800Z,98661.88
2023-02-27T14:51:05.771Z,98673.03
2023-02-27T14:53:23.385Z,98673.66
2023-02-27T14:55:31.517Z,98677.25
2023-02-27T14:57:35.479Z,98666.75
2023-02-27T14:59:43.885Z,98659.16
2023-02-27T15:01:48.595Z,98675.97
2023-02-27T15:03:53.934Z,98667.13
2023-02-27T15:06:01.364Z,98675.47
2023-02-27T15:08:05.011Z,98688.28
2023-02-27T15:10:11.903Z,98671.41
2023-02-27T15:12:19.886Z,98679.09
2023-02-27T15:14:25.521Z,98683.28
2023-02-27T15:16:38.392Z,98676.47
2023-02-27T15:18:43.322Z,98675.63
2023-02-27T15:20:47.635Z,98675.28
2023-02-27T15:22:50.995Z,98683.56
2023-02-27T15:24:55.582Z,98692.91
2023-02-27T15:27:01.319Z,98691.66
2023-02-27T15:29:05.496Z,98686.13
2023-02-27T15:31:10.917Z,98688.88
2023-02-27T15:33:16.321Z,98695.63
2023-02-27T15:35:23.528Z,98699.72
2023-02-27T15:37:28.865Z,98687.78
2023-02-27T15:39:33.778Z,98680.25
2023-02-27T15:41:37.414Z,98693.81
2023-02-27T15:43:42.008Z,98686.91
2023-02-27T15:45:45.351Z,98687.06
2023-02-27T15:47:49.168Z,98697.50
2023-02-27T15:50:00.846Z,98684.53
2023-02-27T15:52:11.149Z,98692.22
2023-02-27T15:54:14.806Z,98690.50
2023-02-27T15:56:19.389Z,98702.56
2023-02-27T15:58:25.651Z,98701.78
2023-02-27T16:00:29.810Z,98694.75
2023-02-27T16:02:40.486Z,98698.31
2023-02-27T16:04:46.239Z,98692.44
2023-02-27T16:06:55.190Z,98695.00
2023-02-27T16:09:01.334Z,98699.28
2023-02-27T16:11:04.579Z,98701.00
2023-02-27T16:13:31.181Z,98706.84
2023-02-27T16:15:36.389Z,98705.69
2023-02-27T16:17:39.653Z,98707.34
2023-02-27T16:19:42.986Z,98714.16
2023-02-27T16:22:04.234Z,98720.09
2023-02-27T16:24:22.302Z,98718.84
2023-02-27T16:26:31.756Z,98729.25
2023-02-27T16:28:37.064Z,98728.53
2023-02-27T16:30:40.944Z,98717.47
2023-02-27T16:32:44.983Z,98732.19
2023-02-27T16:34:48.297Z,98733.06
2023-02-27T16:36:55.502Z,98735.56
2023-02-27T16:38:58.875Z,98734.94
2023-02-27T16:41:03.701Z,98741.81
2023-02-27T16:43:06.932Z,98746.13
2023-02-27T16:45:15.231Z,98747.13
2023-02-27T16:47:18.440Z,98745.34
2023-02-27T16:49:22.601Z,98744.59
2023-02-27T16:51:28.654Z,98751.59
2023-02-27T16:53:32.178Z,98754.13
2023-02-27T16:55:35.532Z,98754.88
2023-02-27T16:57:40.039Z,98761.75
2023-02-27T16:59:44.101Z,98760.16
2023-02-27T17:01:47.345Z,98759.41
2023-02-27T17:03:50.375Z,98769.66
2023-02-27T17:05:54.194Z,98766.34
2023-02-27T17:07:57.386Z,98771.63
2023-02-27T17:10:01.097Z,98768.94
2023-02-27T17:12:04.322Z,98774.03
2023-02-27T17:14:08.860Z,98772.25
2023-02-27T17:16:12.744Z,98776.44
2023-02-27T17:18:16.231Z,98775.53
2023-02-27T17:20:19.509Z,98776.47
2023-02-27T17:22:22.639Z,98778.91
2023-02-27T17:24:25.862Z,98772.06
2023-02-27T17:26:29.443Z,98778.06
2023-02-27T17:28:32.864Z,98773.84
2023-02-27T17:30:37.769Z,98780.75
2023-02-27T17:32:41.154Z,98778.19
2023-02-27T17:34:44.285Z,98781.59
2023-02-27T17:36:47.637Z,98789.34
2023-02-27T17:38:55.358Z,98793.41
2023-02-27T17:40:58.573Z,98795.13
2023-02-27T17:43:01.964Z,98796.78
2023-02-27T17:45:06.481Z,98796.94
2023-02-27T17:47:11.013Z,98794.16
2023-02-27T17:49:14.161Z,98800.91
2023-02-27T17:51:18.705Z,98807.13
2023-02-27T17:53:21.844Z,98811.25
2023-02-27T17:55:27.820Z,98806.00
2023-02-27T17:57:31.064Z,98811.06
2023-02-27T17:59:34.433Z,98813.66
2023-02-27T18:01:38.069Z,98816.19
2023-02-27T18:03:45.559Z,98825.63
2023-02-27T18:05:50.026Z,98821.25
2023-02-27T18:07:56.847Z,98825.50
2023-02-27T18:09:59.997Z,98826.28
2023-02-27T18:12:03.317Z,98833.13
2023-02-27T18:14:06.927Z,98829.75
2023-02-27T18:16:11.169Z,98835.94
2023-02-27T18:18:14.695Z,98829.16
2023-02-27T18:20:20.599Z,98839.34
2023-02-27T18:22:23.841Z,98841.69
2023-02-27T18:24:26.945Z,98847.03
2023-02-27T18:26:31.969Z,98839.13
2023-02-27T18:28:35.176Z,98842.59
2023-02-27T18:30:39.813Z,98835.59
2023-02-27T18:32:43.333Z,98835.66
2023-02-27T18:34:46.618Z,98841.91
2023-02-27T18:36:51.938Z,98835.19
2023-02-27T18:38:55.287Z,98846.50
2023-02-27T18:40:58.745Z,98830.53
2023-02-27T18:43:01.901Z,98835.69
2023-02-27T18:45:06.044Z,98831.59
2023-02-27T18:47:09.745Z,98839.34
2023-02-27T18:49:12.954Z,98837.97
2023-02-27T18:51:17.347Z,98829.44
2023-02-27T18:53:21.936Z,98837.28
2023-02-27T18:55:25.109Z,98838.16
2023-02-27T18:57:28.318Z,98836.56
2023-02-27T18:59:31.394Z,98839.13
2023-02-27T19:01:36.229Z,98838.34
2023-02-27T19:03:39.622Z,98837.56
2023-02-27T19:05:42.865Z,98829.84
2023-02-27T19:07:46.565Z,98827.28
2023-02-27T19:09:51.094Z,98832.56
2023-02-27T19:11:54.548Z,98844.69
2023-02-27T19:13:58.240Z,98842.19
2023-02-27T19:16:04.658Z,98850.06
2023-02-27T19:18:08.088Z,98844.16
2023-02-27T19:20:16.501Z,98841.66
2023-02-27T19:22:20.182Z,98842.66
2023-02-27T19:24:23.742Z,98835.72
2023-02-27T19:26:28.684Z,98834.88
2023-02-27T19:28:32.094Z,98835.72
2023-02-27T19:30:35.285Z,98841.00
2023-02-27T19:32:38.374Z,98833.31
2023-02-27T19:34:42.786Z,98838.53
2023-02-27T19:36:46.088Z,98836.78
2023-02-27T19:38:49.272Z,98839.34
2023-02-27T19:40:52.379Z,98842.59
2023-02-27T19:42:57.275Z,98831.53
2023-02-27T19:45:00.351Z,98832.31
2023-02-27T19:47:03.684Z,98837.38
2023-02-27T19:49:07.130Z,98838.19
2023-02-27T19:51:12.160Z,98827.19
2023-02-27T19:53:15.324Z,98835.69
2023-02-27T19:55:18.446Z,98837.31
2023-02-27T19:57:22.066Z,98834.75
2023-02-27T19:59:26.559Z,98833.97
2023-02-27T20:01:32.664Z,98839.13
2023-02-27T20:03:36.432Z,98832.31
2023-02-27T20:05:39.832Z,98834.09
2023-02-27T20:07:43.425Z,98829.00
2023-02-27T20:09:46.535Z,98838.25
2023-02-27T20:11:50.255Z,98833.41
2023-02-27T20:13:53.389Z,98830.13
2023-02-27T20:15:59.096Z,98837.06
2023-02-27T20:18:02.207Z,98832.91
2023-02-27T20:20:06.676Z,98829.47
2023-02-27T20:22:09.971Z,98828.56
2023-02-27T20:24:14.433Z,98832.19
2023-02-27T20:26:19.935Z,98828.94
2023-02-27T20:28:23.857Z,98835.00
2023-02-27T20:30:27.040Z,98823.13
2023-02-27T20:32:31.656Z,98823.09
2023-02-27T20:34:34.927Z,98829.13
2023-02-27T20:36:38.908Z,98818.81
2023-02-27T20:38:42.394Z,98821.53
2023-02-27T20:40:45.522Z,98821.50
2023-02-27T20:42:48.630Z,98822.41
2023-02-27T20:44:53.273Z,98818.94
2023-02-27T20:46:56.676Z,98813.84
2023-02-27T20:49:02.965Z,98815.63
2023-02-27T20:51:07.806Z,98815.66
2023-02-27T20:53:10.986Z,98811.50
2023-02-27T20:55:14.213Z,98807.25
2023-02-27T20:57:17.301Z,98809.88
2023-02-27T20:59:21.267Z,98803.16
2023-02-27T21:01:24.503Z,98803.09
2023-02-27T21:03:33.541Z,98805.63
2023-02-27T21:05:49.794Z,98809.81
2023-02-27T21:07:53.108Z,98806.28
2023-02-27T21:09:56.353Z,98806.41
2023-02-27T21:11:59.568Z,98807.06
2023-02-27T21:14:05.236Z,98804.63
2023-02-27T21:16:11.071Z,98802.84
2023-02-27T21:18:14.723Z,98810.47
2023-02-27T21:20:17.959Z,98814.69
2023-02-27T21:22:22.551Z,98812.09
2023-02-27T21:24:25.792Z,98811.19
2023-02-27T21:26:31.907Z,98820.56
2023-02-27T21:28:42.038Z,98822.25
2023-02-27T21:30:45.383Z,98813.63
2023-02-27T21:32:48.822Z,98817.06
2023-02-27T21:34:51.941Z,98814.53
2023-02-27T21:36:55.667Z,98807.69
2023-02-27T21:39:01.830Z,98814.56
2023-02-27T21:41:06.956Z,98807.81
2023-02-27T21:43:10.197Z,98809.41
2023-02-27T21:45:13.336Z,98793.25
2023-02-27T21:47:16.502Z,98800.97
2023-02-27T21:49:22.686Z,98788.09
2023-02-27T21:51:39.445Z,98794.28
2023-02-27T21:53:46.699Z,98781.44
2023-02-27T21:55:51.403Z,98791.72
2023-02-27T21:57:56.612Z,98781.53
2023-02-27T21:59:59.740Z,98773.13
2023-02-27T22:02:03.017Z,98780.88
2023-02-27T22:04:06.979Z,98780.88
2023-02-27T22:06:10.480Z,98770.84
2023-02-27T22:08:13.889Z,98771.84
2023-02-27T22:10:17.431Z,98765.22
2023-02-27T22:12:23.063Z,98770.25
2023-02-27T22:14:26.220Z,98769.28
2023-02-27T22:16:29.535Z,98771.88
2023-02-27T22:18:32.956Z,98766.06
2023-02-27T22:20:36.568Z,98771.16
2023-02-27T22:22:39.666Z,98768.72
2023-02-27T22:24:43.141Z,98774.63
2023-02-27T22:26:47.680Z,98773.84
2023-02-27T22:28:52.777Z,98773.81
2023-02-27T22:30:57.915Z,98777.34
2023-02-27T22:33:01.131Z,98769.84
2023-02-27T22:35:04.404Z,98768.16
2023-02-27T22:37:07.596Z,98765.53
2023-02-27T22:39:12.065Z,98773.19
2023-02-27T22:41:16.979Z,98773.19
2023-02-27T22:43:20.050Z,98767.94
2023-02-27T22:45:24.806Z,98772.31
2023-02-27T22:47:30.385Z,98767.28
2023-02-27T22:49:33.793Z,98759.59
2023-02-27T22:51:37.279Z,98763.84
2023-02-27T22:53:41.194Z,98763.81
2023-02-27T22:55:44.423Z,98758.69
2023-02-27T22:57:49.970Z,98756.13
2023-02-27T22:59:53.084Z,98762.97
2023-02-27T23:01:57.613Z,98759.47
2023-02-27T23:04:03.047Z,98761.97
2023-02-27T23:06:07.289Z,98760.47
2023-02-27T23:08:10.455Z,98760.34
2023-02-27T23:10:13.588Z,98770.59
2023-02-27T23:12:16.743Z,98759.44
2023-02-27T23:14:20.876Z,98762.13
2023-02-27T23:16:25.034Z,98768.00
2023-02-27T23:18:29.736Z,98766.25
2023-02-27T23:20:32.827Z,98757.63
2023-02-27T23:22:35.953Z,98769.50
2023-02-27T23:24:40.472Z,98770.38
2023-02-27T23:26:45.556Z,98767.91
2023-02-27T23:28:48.705Z,98767.97
2023-02-27T23:30:51.823Z,98773.22
2023-02-27T23:32:55.173Z,98763.81
2023-02-27T23:34:59.958Z,98767.16
2023-02-27T23:37:04.103Z,98764.69
2023-02-27T23:39:07.888Z,98763.06
2023-02-27T23:41:12.881Z,98764.13
2023-02-27T23:43:16.256Z,98762.38
2023-02-27T23:45:24.472Z,98761.56
2023-02-27T23:47:45.596Z,98763.22
2023-02-27T23:49:48.813Z,98759.88
2023-02-27T23:51:53.163Z,98754.72
2023-02-27T23:53:56.382Z,98759.81
2023-02-27T23:55:59.558Z,98753.97
2023-02-27T23:58:04.719Z,98754.84
